sensor_id;sensor_type;location;lat;lon;timestamp;P1;durP1;ratioP1;P2;durP2;ratioP2
75379;SDS011;65641;44.714;37.756;2023-06-22T00:00:08;1.63;;;1.20;;
75379;SDS011;65641;44.714;37.756;2023-06-22T00:01:20;2.58;;;1.25;;
75379;SDS011;65641;44.714;37.756;2023-06-22T00:02:25;2.92;;;1.55;;
75379;SDS011;65641;44.714;37.756;2023-06-22T00:03:29;2.08;;;1.55;;
75379;SDS011;65641;44.714;37.756;2023-06-22T00:04:32;1.67;;;1.42;;
75379;SDS011;65641;44.714;37.756;2023-06-22T00:05:36;2.15;;;1.50;;
75379;SDS011;65641;44.714;37.756;2023-06-22T00:06:39;2.53;;;1.50;;
75379;SDS011;65641;44.714;37.756;2023-06-22T00:07:43;2.20;;;1.20;;
75379;SDS011;65641;44.714;37.756;2023-06-22T00:08:46;2.35;;;1.58;;
75379;SDS011;65641;44.714;37.756;2023-06-22T00:09:50;2.17;;;1.52;;
75379;SDS011;65641;44.714;37.756;2023-06-22T00:10:53;2.20;;;1.63;;
75379;SDS011;65641;44.714;37.756;2023-06-22T00:11:57;2.53;;;1.48;;
75379;SDS011;65641;44.714;37.756;2023-06-22T00:13:01;2.22;;;2.03;;
75379;SDS011;65641;44.714;37.756;2023-06-22T00:14:04;2.42;;;1.50;;
75379;SDS011;65641;44.714;37.756;2023-06-22T00:15:08;2.25;;;1.70;;
75379;SDS011;65641;44.714;37.756;2023-06-22T00:16:11;2.40;;;1.60;;
75379;SDS011;65641;44.714;37.756;2023-06-22T00:17:15;2.53;;;1.58;;
75379;SDS011;65641;44.714;37.756;2023-06-22T00:18:18;1.98;;;1.58;;
75379;SDS011;65641;44.714;37.756;2023-06-22T00:19:23;2.65;;;1.17;;
75379;SDS011;65641;44.714;37.756;2023-06-22T00:20:26;2.15;;;1.55;;
75379;SDS011;65641;44.714;37.756;2023-06-22T00:21:34;2.35;;;1.40;;
75379;SDS011;65641;44.714;37.756;2023-06-22T00:22:37;2.45;;;1.77;;
75379;SDS011;65641;44.714;37.756;2023-06-22T00:23:42;2.65;;;1.70;;
75379;SDS011;65641;44.714;37.756;2023-06-22T00:24:46;2.30;;;1.30;;
75379;SDS011;65641;44.714;37.756;2023-06-22T00:25:49;2.22;;;1.75;;
75379;SDS011;65641;44.714;37.756;2023-06-22T00:26:53;2.03;;;1.42;;
75379;SDS011;65641;44.714;37.756;2023-06-22T00:27:56;2.08;;;1.55;;
75379;SDS011;65641;44.714;37.756;2023-06-22T00:29:00;3.15;;;1.63;;
75379;SDS011;65641;44.714;37.756;2023-06-22T00:30:05;2.63;;;1.42;;
75379;SDS011;65641;44.714;37.756;2023-06-22T00:31:09;3.08;;;1.60;;
75379;SDS011;65641;44.714;37.756;2023-06-22T00:32:13;2.55;;;2.00;;
75379;SDS011;65641;44.714;37.756;2023-06-22T00:33:16;4.32;;;1.88;;
75379;SDS011;65641;44.714;37.756;2023-06-22T00:34:20;2.33;;;1.92;;
75379;SDS011;65641;44.714;37.756;2023-06-22T00:35:24;2.53;;;1.92;;
75379;SDS011;65641;44.714;37.756;2023-06-22T00:36:32;2.28;;;1.70;;
75379;SDS011;65641;44.714;37.756;2023-06-22T00:37:36;2.72;;;1.98;;
75379;SDS011;65641;44.714;37.756;2023-06-22T00:38:41;1.85;;;1.55;;
75379;SDS011;65641;44.714;37.756;2023-06-22T00:39:44;2.05;;;1.73;;
75379;SDS011;65641;44.714;37.756;2023-06-22T00:40:48;2.42;;;1.48;;
75379;SDS011;65641;44.714;37.756;2023-06-22T00:41:51;2.10;;;1.75;;
75379;SDS011;65641;44.714;37.756;2023-06-22T00:42:55;2.03;;;1.83;;
75379;SDS011;65641;44.714;37.756;2023-06-22T00:43:59;2.33;;;1.60;;
75379;SDS011;65641;44.714;37.756;2023-06-22T00:45:03;3.88;;;1.85;;
75379;SDS011;65641;44.714;37.756;2023-06-22T00:46:06;1.88;;;1.35;;
75379;SDS011;65641;44.714;37.756;2023-06-22T00:47:12;2.30;;;2.03;;
75379;SDS011;65641;44.714;37.756;2023-06-22T00:48:18;3.03;;;1.92;;
75379;SDS011;65641;44.714;37.756;2023-06-22T00:49:23;2.50;;;1.88;;
75379;SDS011;65641;44.714;37.756;2023-06-22T00:50:27;2.17;;;1.63;;
75379;SDS011;65641;44.714;37.756;2023-06-22T00:51:37;2.30;;;1.73;;
75379;SDS011;65641;44.714;37.756;2023-06-22T00:52:41;3.08;;;1.65;;
75379;SDS011;65641;44.714;37.756;2023-06-22T00:53:46;2.05;;;1.75;;
75379;SDS011;65641;44.714;37.756;2023-06-22T00:54:51;2.88;;;2.10;;
75379;SDS011;65641;44.714;37.756;2023-06-22T00:55:55;3.05;;;1.63;;
75379;SDS011;65641;44.714;37.756;2023-06-22T00:56:58;2.30;;;1.73;;
75379;SDS011;65641;44.714;37.756;2023-06-22T00:58:04;2.95;;;1.75;;
75379;SDS011;65641;44.714;37.756;2023-06-22T00:59:11;2.75;;;2.38;;
75379;SDS011;65641;44.714;37.756;2023-06-22T01:00:16;2.75;;;1.98;;
75379;SDS011;65641;44.714;37.756;2023-06-22T01:01:22;2.55;;;1.95;;
75379;SDS011;65641;44.714;37.756;2023-06-22T01:02:26;2.80;;;1.77;;
75379;SDS011;65641;44.714;37.756;2023-06-22T01:03:30;1.70;;;1.23;;
75379;SDS011;65641;44.714;37.756;2023-06-22T01:04:34;2.58;;;2.05;;
75379;SDS011;65641;44.714;37.756;2023-06-22T01:05:41;2.92;;;2.33;;
75379;SDS011;65641;44.714;37.756;2023-06-22T01:06:54;2.80;;;1.88;;
75379;SDS011;65641;44.714;37.756;2023-06-22T01:09:34;2.22;;;1.42;;
75379;SDS011;65641;44.714;37.756;2023-06-22T01:12:23;2.67;;;2.03;;
75379;SDS011;65641;44.714;37.756;2023-06-22T01:14:54;3.33;;;1.77;;
75379;SDS011;65641;44.714;37.756;2023-06-22T01:16:10;2.95;;;2.08;;
75379;SDS011;65641;44.714;37.756;2023-06-22T01:17:22;2.22;;;1.83;;
75379;SDS011;65641;44.714;37.756;2023-06-22T01:18:27;3.22;;;1.95;;
75379;SDS011;65641;44.714;37.756;2023-06-22T01:19:41;2.60;;;2.15;;
75379;SDS011;65641;44.714;37.756;2023-06-22T01:20:50;2.42;;;1.63;;
75379;SDS011;65641;44.714;37.756;2023-06-22T01:21:55;2.70;;;1.40;;
75379;SDS011;65641;44.714;37.756;2023-06-22T01:27:33;2.95;;;2.00;;
75379;SDS011;65641;44.714;37.756;2023-06-22T01:28:57;3.08;;;2.22;;
75379;SDS011;65641;44.714;37.756;2023-06-22T01:30:03;3.15;;;2.25;;
75379;SDS011;65641;44.714;37.756;2023-06-22T01:31:10;2.00;;;1.33;;
75379;SDS011;65641;44.714;37.756;2023-06-22T01:32:17;2.85;;;1.73;;
75379;SDS011;65641;44.714;37.756;2023-06-22T01:33:22;2.60;;;1.98;;
75379;SDS011;65641;44.714;37.756;2023-06-22T01:34:27;3.33;;;2.30;;
75379;SDS011;65641;44.714;37.756;2023-06-22T01:35:36;2.25;;;1.80;;
75379;SDS011;65641;44.714;37.756;2023-06-22T01:36:46;2.10;;;1.65;;
75379;SDS011;65641;44.714;37.756;2023-06-22T01:37:50;2.70;;;2.25;;
75379;SDS011;65641;44.714;37.756;2023-06-22T01:38:53;2.10;;;1.63;;
75379;SDS011;65641;44.714;37.756;2023-06-22T01:39:58;3.05;;;2.20;;
75379;SDS011;65641;44.714;37.756;2023-06-22T01:41:02;2.50;;;2.30;;
75379;SDS011;65641;44.714;37.756;2023-06-22T01:42:06;2.78;;;2.20;;
75379;SDS011;65641;44.714;37.756;2023-06-22T01:43:10;2.35;;;1.67;;
75379;SDS011;65641;44.714;37.756;2023-06-22T01:44:13;2.45;;;1.73;;
75379;SDS011;65641;44.714;37.756;2023-06-22T01:45:18;2.50;;;2.10;;
75379;SDS011;65641;44.714;37.756;2023-06-22T01:46:22;2.80;;;1.88;;
75379;SDS011;65641;44.714;37.756;2023-06-22T01:47:26;2.55;;;1.98;;
75379;SDS011;65641;44.714;37.756;2023-06-22T01:48:30;3.25;;;2.15;;
75379;SDS011;65641;44.714;37.756;2023-06-22T01:49:37;2.95;;;2.10;;
75379;SDS011;65641;44.714;37.756;2023-06-22T01:50:41;3.28;;;2.22;;
75379;SDS011;65641;44.714;37.756;2023-06-22T01:51:46;2.63;;;1.90;;
75379;SDS011;65641;44.714;37.756;2023-06-22T01:52:49;3.28;;;2.60;;
75379;SDS011;65641;44.714;37.756;2023-06-22T01:53:54;3.90;;;2.03;;
75379;SDS011;65641;44.714;37.756;2023-06-22T01:54:57;2.75;;;2.25;;
75379;SDS011;65641;44.714;37.756;2023-06-22T01:56:01;2.28;;;1.67;;
75379;SDS011;65641;44.714;37.756;2023-06-22T01:57:04;2.30;;;1.85;;
75379;SDS011;65641;44.714;37.756;2023-06-22T01:58:08;2.22;;;1.77;;
75379;SDS011;65641;44.714;37.756;2023-06-22T01:59:14;2.65;;;1.92;;
75379;SDS011;65641;44.714;37.756;2023-06-22T02:00:19;2.90;;;2.05;;
75379;SDS011;65641;44.714;37.756;2023-06-22T02:01:31;3.28;;;2.97;;
75379;SDS011;65641;44.714;37.756;2023-06-22T02:04:06;2.90;;;1.75;;
75379;SDS011;65641;44.714;37.756;2023-06-22T02:05:34;2.85;;;2.13;;
75379;SDS011;65641;44.714;37.756;2023-06-22T02:06:46;2.92;;;1.98;;
75379;SDS011;65641;44.714;37.756;2023-06-22T02:08:07;2.20;;;1.95;;
75379;SDS011;65641;44.714;37.756;2023-06-22T02:09:14;2.60;;;1.83;;
75379;SDS011;65641;44.714;37.756;2023-06-22T02:10:20;3.00;;;2.05;;
75379;SDS011;65641;44.714;37.756;2023-06-22T02:11:25;3.13;;;2.13;;
75379;SDS011;65641;44.714;37.756;2023-06-22T02:12:30;2.70;;;2.17;;
75379;SDS011;65641;44.714;37.756;2023-06-22T02:13:35;2.92;;;2.17;;
75379;SDS011;65641;44.714;37.756;2023-06-22T02:14:39;3.25;;;2.95;;
75379;SDS011;65641;44.714;37.756;2023-06-22T02:15:45;3.10;;;2.38;;
75379;SDS011;65641;44.714;37.756;2023-06-22T02:16:51;2.42;;;1.73;;
75379;SDS011;65641;44.714;37.756;2023-06-22T02:17:54;3.13;;;2.47;;
75379;SDS011;65641;44.714;37.756;2023-06-22T02:19:22;2.47;;;2.08;;
75379;SDS011;65641;44.714;37.756;2023-06-22T02:20:27;3.28;;;2.13;;
75379;SDS011;65641;44.714;37.756;2023-06-22T02:21:31;2.53;;;1.75;;
75379;SDS011;65641;44.714;37.756;2023-06-22T02:22:36;3.03;;;2.72;;
75379;SDS011;65641;44.714;37.756;2023-06-22T02:23:39;2.88;;;2.05;;
75379;SDS011;65641;44.714;37.756;2023-06-22T02:24:42;3.15;;;2.17;;
75379;SDS011;65641;44.714;37.756;2023-06-22T02:25:46;3.15;;;2.28;;
75379;SDS011;65641;44.714;37.756;2023-06-22T02:26:50;2.45;;;2.25;;
75379;SDS011;65641;44.714;37.756;2023-06-22T02:27:53;2.30;;;2.08;;
75379;SDS011;65641;44.714;37.756;2023-06-22T02:28:57;3.40;;;2.88;;
75379;SDS011;65641;44.714;37.756;2023-06-22T02:30:01;3.30;;;2.03;;
75379;SDS011;65641;44.714;37.756;2023-06-22T02:31:06;2.55;;;1.77;;
75379;SDS011;65641;44.714;37.756;2023-06-22T02:32:10;2.97;;;2.05;;
75379;SDS011;65641;44.714;37.756;2023-06-22T02:33:14;3.15;;;2.63;;
75379;SDS011;65641;44.714;37.756;2023-06-22T02:34:17;3.10;;;2.55;;
75379;SDS011;65641;44.714;37.756;2023-06-22T02:35:21;3.45;;;2.53;;
75379;SDS011;65641;44.714;37.756;2023-06-22T02:36:25;2.72;;;2.20;;
75379;SDS011;65641;44.714;37.756;2023-06-22T02:37:30;2.90;;;2.58;;
75379;SDS011;65641;44.714;37.756;2023-06-22T02:38:42;2.75;;;2.28;;
75379;SDS011;65641;44.714;37.756;2023-06-22T02:39:51;3.55;;;2.53;;
75379;SDS011;65641;44.714;37.756;2023-06-22T02:40:55;2.95;;;2.60;;
75379;SDS011;65641;44.714;37.756;2023-06-22T02:42:00;2.80;;;1.95;;
75379;SDS011;65641;44.714;37.756;2023-06-22T02:43:03;2.63;;;2.22;;
75379;SDS011;65641;44.714;37.756;2023-06-22T02:44:07;2.83;;;1.92;;
75379;SDS011;65641;44.714;37.756;2023-06-22T02:45:10;3.58;;;2.45;;
75379;SDS011;65641;44.714;37.756;2023-06-22T02:46:14;3.40;;;2.25;;
75379;SDS011;65641;44.714;37.756;2023-06-22T02:47:18;2.92;;;2.47;;
75379;SDS011;65641;44.714;37.756;2023-06-22T02:48:22;2.55;;;2.15;;
75379;SDS011;65641;44.714;37.756;2023-06-22T02:49:25;3.55;;;2.83;;
75379;SDS011;65641;44.714;37.756;2023-06-22T02:50:29;3.28;;;2.45;;
75379;SDS011;65641;44.714;37.756;2023-06-22T02:51:34;3.50;;;2.67;;
75379;SDS011;65641;44.714;37.756;2023-06-22T02:52:38;2.63;;;2.17;;
75379;SDS011;65641;44.714;37.756;2023-06-22T02:53:42;3.63;;;2.70;;
75379;SDS011;65641;44.714;37.756;2023-06-22T02:54:49;2.90;;;2.58;;
75379;SDS011;65641;44.714;37.756;2023-06-22T02:55:53;3.42;;;2.65;;
75379;SDS011;65641;44.714;37.756;2023-06-22T02:56:57;3.10;;;2.35;;
75379;SDS011;65641;44.714;37.756;2023-06-22T02:58:00;3.00;;;2.35;;
75379;SDS011;65641;44.714;37.756;2023-06-22T02:59:10;3.30;;;2.47;;
75379;SDS011;65641;44.714;37.756;2023-06-22T03:00:14;2.90;;;2.30;;
75379;SDS011;65641;44.714;37.756;2023-06-22T03:01:23;3.72;;;2.25;;
75379;SDS011;65641;44.714;37.756;2023-06-22T03:02:27;3.35;;;2.45;;
75379;SDS011;65641;44.714;37.756;2023-06-22T03:03:33;4.38;;;2.60;;
75379;SDS011;65641;44.714;37.756;2023-06-22T03:04:36;3.10;;;2.70;;
75379;SDS011;65641;44.714;37.756;2023-06-22T03:05:40;3.45;;;2.42;;
75379;SDS011;65641;44.714;37.756;2023-06-22T03:06:43;3.00;;;2.40;;
75379;SDS011;65641;44.714;37.756;2023-06-22T03:07:47;3.05;;;2.67;;
75379;SDS011;65641;44.714;37.756;2023-06-22T03:08:51;3.65;;;2.63;;
75379;SDS011;65641;44.714;37.756;2023-06-22T03:09:55;3.80;;;2.35;;
75379;SDS011;65641;44.714;37.756;2023-06-22T03:11:00;3.65;;;2.35;;
75379;SDS011;65641;44.714;37.756;2023-06-22T03:12:04;3.70;;;2.58;;
75379;SDS011;65641;44.714;37.756;2023-06-22T03:13:28;4.75;;;2.47;;
75379;SDS011;65641;44.714;37.756;2023-06-22T03:14:32;3.83;;;2.58;;
75379;SDS011;65641;44.714;37.756;2023-06-22T03:15:36;3.05;;;2.58;;
75379;SDS011;65641;44.714;37.756;2023-06-22T03:16:41;3.90;;;2.58;;
75379;SDS011;65641;44.714;37.756;2023-06-22T03:17:46;3.08;;;2.13;;
75379;SDS011;65641;44.714;37.756;2023-06-22T03:18:49;2.60;;;2.22;;
75379;SDS011;65641;44.714;37.756;2023-06-22T03:19:53;3.17;;;2.00;;
75379;SDS011;65641;44.714;37.756;2023-06-22T03:20:57;3.33;;;2.50;;
75379;SDS011;65641;44.714;37.756;2023-06-22T03:22:00;3.13;;;2.45;;
75379;SDS011;65641;44.714;37.756;2023-06-22T03:23:04;2.78;;;2.20;;
75379;SDS011;65641;44.714;37.756;2023-06-22T03:24:08;4.72;;;3.45;;
75379;SDS011;65641;44.714;37.756;2023-06-22T03:25:11;2.55;;;2.10;;
75379;SDS011;65641;44.714;37.756;2023-06-22T03:26:21;2.60;;;2.15;;
75379;SDS011;65641;44.714;37.756;2023-06-22T03:27:26;3.10;;;2.67;;
75379;SDS011;65641;44.714;37.756;2023-06-22T03:28:29;4.05;;;2.83;;
75379;SDS011;65641;44.714;37.756;2023-06-22T03:29:33;3.20;;;2.72;;
75379;SDS011;65641;44.714;37.756;2023-06-22T03:30:37;2.55;;;2.08;;
75379;SDS011;65641;44.714;37.756;2023-06-22T03:31:40;3.67;;;1.90;;
75379;SDS011;65641;44.714;37.756;2023-06-22T03:32:44;2.95;;;2.53;;
75379;SDS011;65641;44.714;37.756;2023-06-22T03:33:50;2.83;;;2.08;;
75379;SDS011;65641;44.714;37.756;2023-06-22T03:34:54;2.50;;;2.15;;
75379;SDS011;65641;44.714;37.756;2023-06-22T03:36:03;3.08;;;2.40;;
75379;SDS011;65641;44.714;37.756;2023-06-22T03:37:06;3.17;;;2.53;;
75379;SDS011;65641;44.714;37.756;2023-06-22T03:38:10;3.90;;;2.35;;
75379;SDS011;65641;44.714;37.756;2023-06-22T03:39:13;3.20;;;2.25;;
75379;SDS011;65641;44.714;37.756;2023-06-22T03:40:17;3.10;;;2.80;;
75379;SDS011;65641;44.714;37.756;2023-06-22T03:41:20;2.88;;;1.73;;
75379;SDS011;65641;44.714;37.756;2023-06-22T03:42:25;4.13;;;2.72;;
75379;SDS011;65641;44.714;37.756;2023-06-22T03:43:29;2.88;;;1.95;;
75379;SDS011;65641;44.714;37.756;2023-06-22T03:44:32;3.72;;;2.85;;
75379;SDS011;65641;44.714;37.756;2023-06-22T03:45:35;3.30;;;2.55;;
75379;SDS011;65641;44.714;37.756;2023-06-22T03:46:39;3.20;;;2.65;;
75379;SDS011;65641;44.714;37.756;2023-06-22T03:47:42;3.15;;;2.60;;
75379;SDS011;65641;44.714;37.756;2023-06-22T03:48:46;2.97;;;2.53;;
75379;SDS011;65641;44.714;37.756;2023-06-22T03:49:49;3.60;;;3.22;;
75379;SDS011;65641;44.714;37.756;2023-06-22T03:50:59;3.80;;;2.30;;
75379;SDS011;65641;44.714;37.756;2023-06-22T03:52:02;3.08;;;2.63;;
75379;SDS011;65641;44.714;37.756;2023-06-22T03:53:07;2.80;;;1.95;;
75379;SDS011;65641;44.714;37.756;2023-06-22T03:54:10;3.50;;;2.67;;
75379;SDS011;65641;44.714;37.756;2023-06-22T03:55:14;2.75;;;2.25;;
75379;SDS011;65641;44.714;37.756;2023-06-22T03:56:17;3.90;;;2.90;;
75379;SDS011;65641;44.714;37.756;2023-06-22T03:57:23;3.53;;;2.67;;
75379;SDS011;65641;44.714;37.756;2023-06-22T03:58:26;3.15;;;2.30;;
75379;SDS011;65641;44.714;37.756;2023-06-22T03:59:35;2.58;;;2.20;;
75379;SDS011;65641;44.714;37.756;2023-06-22T04:00:39;2.88;;;2.42;;
75379;SDS011;65641;44.714;37.756;2023-06-22T04:01:43;2.88;;;2.30;;
75379;SDS011;65641;44.714;37.756;2023-06-22T04:02:47;3.15;;;2.30;;
75379;SDS011;65641;44.714;37.756;2023-06-22T04:03:51;2.88;;;2.13;;
75379;SDS011;65641;44.714;37.756;2023-06-22T04:04:56;3.05;;;2.05;;
75379;SDS011;65641;44.714;37.756;2023-06-22T04:06:03;3.30;;;2.80;;
75379;SDS011;65641;44.714;37.756;2023-06-22T04:07:06;3.92;;;3.00;;
75379;SDS011;65641;44.714;37.756;2023-06-22T04:08:11;2.95;;;2.05;;
75379;SDS011;65641;44.714;37.756;2023-06-22T04:09:15;3.63;;;3.05;;
75379;SDS011;65641;44.714;37.756;2023-06-22T04:10:19;3.15;;;1.95;;
75379;SDS011;65641;44.714;37.756;2023-06-22T04:11:23;3.42;;;2.22;;
75379;SDS011;65641;44.714;37.756;2023-06-22T04:12:26;3.08;;;2.38;;
75379;SDS011;65641;44.714;37.756;2023-06-22T04:13:29;2.85;;;2.50;;
75379;SDS011;65641;44.714;37.756;2023-06-22T04:14:33;3.40;;;2.90;;
75379;SDS011;65641;44.714;37.756;2023-06-22T04:15:36;3.50;;;2.88;;
75379;SDS011;65641;44.714;37.756;2023-06-22T04:16:40;2.97;;;2.45;;
75379;SDS011;65641;44.714;37.756;2023-06-22T04:17:43;2.83;;;2.40;;
75379;SDS011;65641;44.714;37.756;2023-06-22T04:18:47;2.63;;;2.35;;
75379;SDS011;65641;44.714;37.756;2023-06-22T04:19:51;3.30;;;3.00;;
75379;SDS011;65641;44.714;37.756;2023-06-22T04:20:55;3.83;;;2.20;;
75379;SDS011;65641;44.714;37.756;2023-06-22T04:21:59;2.78;;;2.53;;
75379;SDS011;65641;44.714;37.756;2023-06-22T04:23:02;3.63;;;2.50;;
75379;SDS011;65641;44.714;37.756;2023-06-22T04:24:06;3.25;;;2.60;;
75379;SDS011;65641;44.714;37.756;2023-06-22T04:25:09;2.95;;;2.30;;
75379;SDS011;65641;44.714;37.756;2023-06-22T04:26:13;3.35;;;2.63;;
75379;SDS011;65641;44.714;37.756;2023-06-22T04:27:19;3.92;;;2.63;;
75379;SDS011;65641;44.714;37.756;2023-06-22T04:28:24;4.20;;;2.17;;
75379;SDS011;65641;44.714;37.756;2023-06-22T04:29:29;5.13;;;3.28;;
75379;SDS011;65641;44.714;37.756;2023-06-22T04:30:33;3.40;;;2.80;;
75379;SDS011;65641;44.714;37.756;2023-06-22T04:31:37;3.47;;;2.80;;
75379;SDS011;65641;44.714;37.756;2023-06-22T04:32:41;3.55;;;2.83;;
75379;SDS011;65641;44.714;37.756;2023-06-22T04:33:44;2.83;;;1.98;;
75379;SDS011;65641;44.714;37.756;2023-06-22T04:34:48;3.42;;;2.15;;
75379;SDS011;65641;44.714;37.756;2023-06-22T04:35:51;3.83;;;3.17;;
75379;SDS011;65641;44.714;37.756;2023-06-22T04:36:55;3.50;;;2.33;;
75379;SDS011;65641;44.714;37.756;2023-06-22T04:37:58;3.33;;;2.40;;
75379;SDS011;65641;44.714;37.756;2023-06-22T04:39:02;3.33;;;2.50;;
75379;SDS011;65641;44.714;37.756;2023-06-22T04:40:08;3.70;;;2.28;;
75379;SDS011;65641;44.714;37.756;2023-06-22T04:41:12;4.43;;;3.10;;
75379;SDS011;65641;44.714;37.756;2023-06-22T04:42:17;4.05;;;2.85;;
75379;SDS011;65641;44.714;37.756;2023-06-22T04:43:20;3.08;;;2.63;;
75379;SDS011;65641;44.714;37.756;2023-06-22T04:44:24;3.42;;;2.60;;
75379;SDS011;65641;44.714;37.756;2023-06-22T04:45:31;4.35;;;2.58;;
75379;SDS011;65641;44.714;37.756;2023-06-22T04:46:35;3.65;;;2.83;;
75379;SDS011;65641;44.714;37.756;2023-06-22T04:47:40;4.25;;;3.33;;
75379;SDS011;65641;44.714;37.756;2023-06-22T04:48:44;3.88;;;3.33;;
75379;SDS011;65641;44.714;37.756;2023-06-22T04:49:47;2.97;;;2.65;;
75379;SDS011;65641;44.714;37.756;2023-06-22T04:50:51;3.42;;;2.50;;
75379;SDS011;65641;44.714;37.756;2023-06-22T04:51:54;4.03;;;2.83;;
75379;SDS011;65641;44.714;37.756;2023-06-22T04:52:59;4.18;;;2.95;;
75379;SDS011;65641;44.714;37.756;2023-06-22T04:54:02;4.00;;;2.58;;
75379;SDS011;65641;44.714;37.756;2023-06-22T04:55:08;4.28;;;2.78;;
75379;SDS011;65641;44.714;37.756;2023-06-22T04:56:13;4.10;;;2.75;;
75379;SDS011;65641;44.714;37.756;2023-06-22T04:57:18;2.60;;;1.98;;
75379;SDS011;65641;44.714;37.756;2023-06-22T04:58:22;3.30;;;2.75;;
75379;SDS011;65641;44.714;37.756;2023-06-22T04:59:26;4.13;;;2.95;;
75379;SDS011;65641;44.714;37.756;2023-06-22T05:00:32;3.33;;;2.88;;
75379;SDS011;65641;44.714;37.756;2023-06-22T05:01:39;4.10;;;2.65;;
75379;SDS011;65641;44.714;37.756;2023-06-22T05:02:43;4.47;;;3.05;;
75379;SDS011;65641;44.714;37.756;2023-06-22T05:03:51;3.33;;;2.67;;
75379;SDS011;65641;44.714;37.756;2023-06-22T05:04:58;3.72;;;3.22;;
75379;SDS011;65641;44.714;37.756;2023-06-22T05:06:02;3.42;;;2.47;;
75379;SDS011;65641;44.714;37.756;2023-06-22T05:07:05;3.63;;;3.13;;
75379;SDS011;65641;44.714;37.756;2023-06-22T05:08:09;3.47;;;2.92;;
75379;SDS011;65641;44.714;37.756;2023-06-22T05:09:13;4.18;;;3.03;;
75379;SDS011;65641;44.714;37.756;2023-06-22T05:10:16;3.22;;;2.92;;
75379;SDS011;65641;44.714;37.756;2023-06-22T05:11:20;4.05;;;2.80;;
75379;SDS011;65641;44.714;37.756;2023-06-22T05:12:23;4.47;;;3.10;;
75379;SDS011;65641;44.714;37.756;2023-06-22T05:13:26;3.47;;;3.17;;
75379;SDS011;65641;44.714;37.756;2023-06-22T05:14:30;4.72;;;3.33;;
75379;SDS011;65641;44.714;37.756;2023-06-22T05:15:33;5.22;;;3.30;;
75379;SDS011;65641;44.714;37.756;2023-06-22T05:16:43;3.88;;;2.92;;
75379;SDS011;65641;44.714;37.756;2023-06-22T05:17:47;4.88;;;2.85;;
75379;SDS011;65641;44.714;37.756;2023-06-22T05:18:51;5.07;;;3.10;;
75379;SDS011;65641;44.714;37.756;2023-06-22T05:19:58;3.67;;;2.78;;
75379;SDS011;65641;44.714;37.756;2023-06-22T05:21:05;3.97;;;2.85;;
75379;SDS011;65641;44.714;37.756;2023-06-22T05:22:08;3.75;;;2.90;;
75379;SDS011;65641;44.714;37.756;2023-06-22T05:23:12;3.33;;;2.95;;
75379;SDS011;65641;44.714;37.756;2023-06-22T05:24:16;4.03;;;3.00;;
75379;SDS011;65641;44.714;37.756;2023-06-22T05:25:19;3.80;;;2.65;;
75379;SDS011;65641;44.714;37.756;2023-06-22T05:26:23;3.95;;;2.70;;
75379;SDS011;65641;44.714;37.756;2023-06-22T05:27:27;4.07;;;3.15;;
75379;SDS011;65641;44.714;37.756;2023-06-22T05:28:30;3.75;;;2.55;;
75379;SDS011;65641;44.714;37.756;2023-06-22T05:29:36;3.63;;;3.08;;
75379;SDS011;65641;44.714;37.756;2023-06-22T05:30:40;4.55;;;4.00;;
75379;SDS011;65641;44.714;37.756;2023-06-22T05:31:44;5.18;;;2.88;;
75379;SDS011;65641;44.714;37.756;2023-06-22T05:32:47;4.40;;;2.83;;
75379;SDS011;65641;44.714;37.756;2023-06-22T05:33:51;3.75;;;2.88;;
75379;SDS011;65641;44.714;37.756;2023-06-22T05:34:55;4.40;;;3.40;;
75379;SDS011;65641;44.714;37.756;2023-06-22T05:35:59;5.28;;;3.10;;
75379;SDS011;65641;44.714;37.756;2023-06-22T05:37:03;4.57;;;2.95;;
75379;SDS011;65641;44.714;37.756;2023-06-22T05:38:06;4.22;;;2.90;;
75379;SDS011;65641;44.714;37.756;2023-06-22T05:39:10;4.03;;;3.03;;
75379;SDS011;65641;44.714;37.756;2023-06-22T05:40:17;4.00;;;3.25;;
75379;SDS011;65641;44.714;37.756;2023-06-22T05:41:21;4.32;;;3.75;;
75379;SDS011;65641;44.714;37.756;2023-06-22T05:42:25;3.63;;;2.88;;
75379;SDS011;65641;44.714;37.756;2023-06-22T05:43:28;4.25;;;2.97;;
75379;SDS011;65641;44.714;37.756;2023-06-22T05:44:32;4.78;;;4.03;;
75379;SDS011;65641;44.714;37.756;2023-06-22T05:45:36;4.75;;;3.15;;
75379;SDS011;65641;44.714;37.756;2023-06-22T05:46:40;4.38;;;3.38;;
75379;SDS011;65641;44.714;37.756;2023-06-22T05:47:49;4.18;;;2.88;;
75379;SDS011;65641;44.714;37.756;2023-06-22T05:48:53;3.50;;;2.85;;
75379;SDS011;65641;44.714;37.756;2023-06-22T05:49:56;3.90;;;3.50;;
75379;SDS011;65641;44.714;37.756;2023-06-22T05:51:01;4.57;;;3.22;;
75379;SDS011;65641;44.714;37.756;2023-06-22T05:52:04;4.43;;;2.97;;
75379;SDS011;65641;44.714;37.756;2023-06-22T05:53:08;4.40;;;2.92;;
75379;SDS011;65641;44.714;37.756;2023-06-22T05:54:11;3.92;;;2.90;;
75379;SDS011;65641;44.714;37.756;2023-06-22T05:55:16;4.55;;;3.45;;
75379;SDS011;65641;44.714;37.756;2023-06-22T05:56:21;4.90;;;3.10;;
75379;SDS011;65641;44.714;37.756;2023-06-22T05:57:25;3.72;;;2.97;;
75379;SDS011;65641;44.714;37.756;2023-06-22T05:58:28;3.75;;;2.58;;
75379;SDS011;65641;44.714;37.756;2023-06-22T05:59:31;3.33;;;2.65;;
75379;SDS011;65641;44.714;37.756;2023-06-22T06:00:35;4.57;;;2.95;;
75379;SDS011;65641;44.714;37.756;2023-06-22T06:01:39;4.20;;;3.05;;
75379;SDS011;65641;44.714;37.756;2023-06-22T06:02:43;4.53;;;2.95;;
75379;SDS011;65641;44.714;37.756;2023-06-22T06:03:47;4.38;;;3.13;;
75379;SDS011;65641;44.714;37.756;2023-06-22T06:04:52;4.95;;;3.58;;
75379;SDS011;65641;44.714;37.756;2023-06-22T06:05:57;4.75;;;2.83;;
75379;SDS011;65641;44.714;37.756;2023-06-22T06:07:00;3.83;;;3.25;;
75379;SDS011;65641;44.714;37.756;2023-06-22T06:08:05;4.93;;;3.50;;
75379;SDS011;65641;44.714;37.756;2023-06-22T06:09:09;4.38;;;3.33;;
75379;SDS011;65641;44.714;37.756;2023-06-22T06:10:14;4.03;;;3.08;;
75379;SDS011;65641;44.714;37.756;2023-06-22T06:11:18;4.05;;;3.35;;
75379;SDS011;65641;44.714;37.756;2023-06-22T06:12:21;5.63;;;3.72;;
75379;SDS011;65641;44.714;37.756;2023-06-22T06:13:25;5.50;;;3.50;;
75379;SDS011;65641;44.714;37.756;2023-06-22T06:14:28;5.38;;;3.42;;
75379;SDS011;65641;44.714;37.756;2023-06-22T06:15:32;5.10;;;3.95;;
75379;SDS011;65641;44.714;37.756;2023-06-22T06:16:37;5.30;;;3.45;;
75379;SDS011;65641;44.714;37.756;2023-06-22T06:18:51;4.65;;;3.42;;
75379;SDS011;65641;44.714;37.756;2023-06-22T06:19:56;5.20;;;2.72;;
75379;SDS011;65641;44.714;37.756;2023-06-22T06:20:59;3.95;;;3.38;;
75379;SDS011;65641;44.714;37.756;2023-06-22T06:22:03;4.75;;;3.40;;
75379;SDS011;65641;44.714;37.756;2023-06-22T06:23:06;5.20;;;3.17;;
75379;SDS011;65641;44.714;37.756;2023-06-22T06:24:10;3.45;;;2.72;;
75379;SDS011;65641;44.714;37.756;2023-06-22T06:25:15;5.07;;;3.60;;
75379;SDS011;65641;44.714;37.756;2023-06-22T06:26:19;5.25;;;3.53;;
75379;SDS011;65641;44.714;37.756;2023-06-22T06:27:31;5.45;;;3.63;;
75379;SDS011;65641;44.714;37.756;2023-06-22T06:28:34;4.80;;;4.25;;
75379;SDS011;65641;44.714;37.756;2023-06-22T06:29:38;4.45;;;3.28;;
75379;SDS011;65641;44.714;37.756;2023-06-22T06:30:41;3.72;;;2.80;;
75379;SDS011;65641;44.714;37.756;2023-06-22T06:31:45;4.47;;;3.35;;
75379;SDS011;65641;44.714;37.756;2023-06-22T06:32:49;5.20;;;3.15;;
75379;SDS011;65641;44.714;37.756;2023-06-22T06:33:53;4.28;;;2.85;;
75379;SDS011;65641;44.714;37.756;2023-06-22T06:34:56;3.92;;;3.30;;
75379;SDS011;65641;44.714;37.756;2023-06-22T06:36:00;4.95;;;3.22;;